createdAt,value
2022-07-31T00:02:13.590Z,19.60
2022-07-31T00:04:43.460Z,19.50
2022-07-31T00:07:13.277Z,19.50
2022-07-31T00:09:53.194Z,19.50
2022-07-31T00:12:24.972Z,19.50
2022-07-31T00:14:54.911Z,19.40
2022-07-31T00:17:27.301Z,19.40
2022-07-31T00:19:57.171Z,19.40
2022-07-31T00:22:26.994Z,19.40
2022-07-31T00:24:56.849Z,19.30
2022-07-31T00:27:26.831Z,19.20
2022-07-31T00:29:56.617Z,19.30
2022-07-31T00:32:29.258Z,19.30
2022-07-31T00:34:59.179Z,19.30
2022-07-31T00:37:29.043Z,19.30
2022-07-31T00:39:58.854Z,19.20
2022-07-31T00:42:29.641Z,19.20
2022-07-31T00:44:59.432Z,19.10
2022-07-31T00:47:31.935Z,19.10
2022-07-31T00:50:01.837Z,19.20
2022-07-31T00:52:31.777Z,19.20
2022-07-31T00:55:01.671Z,19.30
2022-07-31T00:57:31.549Z,19.40
2022-07-31T01:00:01.378Z,19.40
2022-07-31T01:02:33.882Z,19.30
2022-07-31T01:05:03.755Z,19.20
2022-07-31T01:07:33.696Z,19.20
2022-07-31T01:10:08.795Z,19.20
2022-07-31T01:12:44.699Z,19.20
2022-07-31T01:15:16.357Z,19.30
2022-07-31T01:17:49.717Z,19.20
2022-07-31T01:20:20.202Z,19.10
2022-07-31T01:23:16.296Z,19.00
2022-07-31T01:25:58.900Z,19.00
2022-07-31T01:28:56.469Z,18.80
2022-07-31T01:31:37.052Z,18.80
2022-07-31T01:34:11.487Z,18.60
2022-07-31T01:36:49.847Z,18.60
2022-07-31T01:39:20.402Z,18.60
2022-07-31T01:41:51.370Z,18.50
2022-07-31T01:44:25.115Z,18.50
2022-07-31T01:46:56.222Z,18.50
2022-07-31T01:49:26.693Z,18.50
2022-07-31T01:52:04.280Z,18.50
2022-07-31T01:54:36.391Z,18.60
2022-07-31T01:57:08.868Z,18.70
2022-07-31T01:59:44.861Z,18.70
2022-07-31T02:02:17.705Z,18.70
2022-07-31T02:04:49.739Z,18.70
2022-07-31T02:07:20.788Z,18.60
2022-07-31T02:09:58.057Z,18.50
2022-07-31T02:12:32.284Z,18.50
2022-07-31T02:15:10.676Z,18.60
2022-07-31T02:17:41.355Z,18.60
2022-07-31T02:20:14.181Z,18.60
2022-07-31T02:22:44.227Z,18.60
2022-07-31T02:25:14.161Z,18.70
2022-07-31T02:27:53.922Z,18.60
2022-07-31T02:30:38.530Z,18.50
2022-07-31T02:33:12.799Z,18.50
2022-07-31T02:35:45.760Z,18.50
2022-07-31T02:38:23.223Z,18.60
2022-07-31T02:40:56.988Z,18.60
2022-07-31T02:43:28.112Z,18.60
2022-07-31T02:46:01.425Z,18.50
2022-07-31T02:48:31.689Z,18.50
2022-07-31T02:51:02.076Z,18.40
2022-07-31T02:53:33.270Z,18.40
2022-07-31T02:56:04.706Z,18.50
2022-07-31T02:58:34.869Z,18.50
2022-07-31T03:01:09.090Z,18.40
2022-07-31T03:03:39.142Z,18.40
2022-07-31T03:06:09.085Z,18.20
2022-07-31T03:08:40.307Z,18.20
2022-07-31T03:11:11.503Z,18.20
2022-07-31T03:13:43.641Z,18.20
2022-07-31T03:16:17.278Z,18.20
2022-07-31T03:18:48.286Z,18.10
2022-07-31T03:21:19.197Z,18.10
2022-07-31T03:23:50.108Z,18.10
2022-07-31T03:26:20.616Z,18.10
2022-07-31T03:28:50.466Z,18.00
2022-07-31T03:31:23.118Z,18.10
2022-07-31T03:33:52.943Z,18.10
2022-07-31T03:36:22.818Z,18.10
2022-07-31T03:38:52.990Z,18.10
2022-07-31T03:41:22.885Z,18.10
2022-07-31T03:43:53.374Z,18.00
2022-07-31T03:46:44.950Z,18.00
2022-07-31T03:49:35.306Z,18.10
2022-07-31T03:52:24.298Z,18.10
2022-07-31T03:54:54.475Z,18.10
2022-07-31T03:57:27.009Z,18.20
2022-07-31T04:00:00.178Z,18.20
2022-07-31T04:02:33.431Z,18.20
2022-07-31T04:05:08.056Z,18.20
2022-07-31T04:07:39.721Z,18.10
2022-07-31T04:10:10.915Z,18.10
2022-07-31T04:12:40.980Z,18.10
2022-07-31T04:15:11.594Z,18.10
2022-07-31T04:17:44.154Z,18.20
2022-07-31T04:20:14.330Z,18.30
2022-07-31T04:22:44.281Z,18.40
2022-07-31T04:25:14.174Z,18.40
2022-07-31T04:27:48.279Z,18.50
2022-07-31T04:30:18.799Z,18.90
2022-07-31T04:32:51.376Z,18.90
2022-07-31T04:35:22.167Z,18.90
2022-07-31T04:37:52.075Z,19.20
2022-07-31T04:40:21.905Z,19.30
2022-07-31T04:42:51.765Z,20.40
2022-07-31T04:45:21.719Z,20.90
2022-07-31T04:47:54.190Z,21.80
2022-07-31T04:50:24.262Z,22.50
2022-07-31T04:52:54.163Z,22.80
2022-07-31T04:55:24.317Z,22.60
2022-07-31T04:57:54.166Z,22.00
2022-07-31T05:00:24.905Z,22.70
2022-07-31T05:02:57.355Z,22.80
2022-07-31T05:05:27.146Z,23.60
2022-07-31T05:07:56.964Z,23.90
2022-07-31T05:10:42.063Z,25.50
2022-07-31T05:13:11.893Z,26.00
2022-07-31T05:15:41.652Z,25.30
2022-07-31T05:18:14.205Z,25.70
2022-07-31T05:20:44.048Z,25.20
2022-07-31T05:23:13.833Z,23.30
2022-07-31T05:25:43.696Z,21.80
2022-07-31T05:28:13.484Z,21.00
2022-07-31T05:30:43.366Z,20.50
2022-07-31T05:33:15.795Z,20.40
2022-07-31T05:35:46.243Z,20.30
2022-07-31T05:38:16.031Z,20.20
2022-07-31T05:40:45.891Z,20.10
2022-07-31T05:43:15.727Z,20.00
2022-07-31T05:45:47.009Z,20.10
2022-07-31T05:48:20.109Z,20.00
2022-07-31T05:50:51.396Z,20.00
2022-07-31T05:53:22.105Z,19.80
2022-07-31T05:55:53.155Z,19.90
2022-07-31T05:58:23.575Z,20.00
2022-07-31T06:00:53.473Z,20.20
2022-07-31T06:03:29.563Z,20.30
2022-07-31T06:05:59.665Z,20.50
2022-07-31T06:08:29.507Z,20.40
2022-07-31T06:11:00.059Z,20.50
2022-07-31T06:13:31.215Z,20.60
2022-07-31T06:16:01.144Z,20.60
2022-07-31T06:18:33.741Z,20.70
2022-07-31T06:21:03.537Z,20.90
2022-07-31T06:23:33.376Z,21.10
2022-07-31T06:26:03.448Z,21.10
2022-07-31T06:28:48.160Z,21.10
2022-07-31T06:31:20.571Z,20.80
2022-07-31T06:33:53.301Z,21.10
2022-07-31T06:36:23.181Z,21.10
2022-07-31T06:38:53.095Z,21.10
2022-07-31T06:41:35.394Z,21.10
2022-07-31T06:44:05.778Z,21.30
2022-07-31T06:46:35.585Z,21.30
2022-07-31T06:49:09.544Z,21.70
2022-07-31T06:51:39.716Z,21.80
2022-07-31T06:54:12.137Z,21.80
2022-07-31T06:56:42.406Z,21.80
2022-07-31T06:59:12.957Z,21.90
2022-07-31T07:01:42.869Z,21.70
2022-07-31T07:04:15.332Z,21.60
2022-07-31T07:06:45.340Z,22.10
2022-07-31T07:09:15.161Z,22.30
2022-07-31T07:11:45.015Z,21.90
2022-07-31T07:14:14.855Z,21.90
2022-07-31T07:16:44.748Z,22.40
2022-07-31T07:19:17.531Z,22.70
2022-07-31T07:21:47.484Z,22.50
2022-07-31T07:24:20.025Z,22.50
2022-07-31T07:26:49.850Z,22.10
2022-07-31T07:29:19.775Z,21.80
2022-07-31T07:31:49.867Z,22.40
2022-07-31T07:34:22.299Z,22.70
2022-07-31T07:36:52.536Z,22.70
2022-07-31T07:39:22.771Z,23.20
2022-07-31T07:41:53.375Z,23.10
2022-07-31T07:44:23.191Z,22.80
2022-07-31T07:46:53.048Z,22.90
2022-07-31T07:49:25.576Z,23.30
2022-07-31T07:51:59.660Z,23.50
2022-07-31T07:54:30.345Z,23.30
2022-07-31T07:57:00.125Z,23.10
2022-07-31T07:59:30.313Z,22.90
2022-07-31T08:02:00.116Z,23.20
2022-07-31T08:04:32.563Z,22.80
2022-07-31T08:07:03.781Z,22.60
2022-07-31T08:09:33.825Z,22.80
2022-07-31T08:12:04.174Z,23.10
2022-07-31T08:14:34.145Z,23.70
2022-07-31T08:17:04.174Z,24.10
2022-07-31T08:19:36.675Z,24.00
2022-07-31T08:22:09.182Z,23.90
2022-07-31T08:24:39.039Z,24.00
2022-07-31T08:27:21.588Z,24.20
2022-07-31T08:29:51.511Z,24.40
2022-07-31T08:32:21.894Z,24.30
2022-07-31T08:34:54.698Z,24.80
2022-07-31T08:37:51.761Z,24.40
2022-07-31T08:40:17.790Z,24.20
2022-07-31T08:42:48.356Z,24.70
2022-07-31T08:45:18.206Z,25.00
2022-07-31T08:47:50.675Z,25.00
2022-07-31T08:50:24.102Z,24.80
2022-07-31T08:52:55.387Z,25.30
2022-07-31T08:55:56.655Z,25.80
2022-07-31T08:58:15.914Z,25.70
2022-07-31T09:00:45.823Z,25.70
2022-07-31T09:03:15.787Z,25.60
2022-07-31T09:05:48.225Z,26.00
2022-07-31T09:08:18.727Z,26.40
2022-07-31T09:10:50.288Z,25.80
2022-07-31T09:13:21.756Z,25.70
2022-07-31T09:15:54.069Z,25.70
2022-07-31T09:18:25.195Z,25.80
2022-07-31T09:21:02.475Z,26.40
2022-07-31T09:23:33.324Z,26.40
2022-07-31T09:26:05.527Z,26.90
2022-07-31T09:28:36.637Z,26.90
2022-07-31T09:31:07.759Z,27.00
2022-07-31T09:33:45.175Z,27.60
2022-07-31T09:36:18.215Z,27.70
2022-07-31T09:38:48.416Z,27.90
2022-07-31T09:41:53.595Z,27.70
2022-07-31T09:44:11.057Z,27.70
2022-07-31T09:46:52.946Z,27.20
2022-07-31T09:49:34.300Z,27.20
2022-07-31T09:52:07.330Z,27.00
2022-07-31T09:54:37.163Z,27.00
2022-07-31T09:57:14.339Z,27.40
2022-07-31T09:59:44.460Z,27.70
2022-07-31T10:02:18.115Z,28.20
2022-07-31T10:04:48.407Z,28.60
2022-07-31T10:07:32.429Z,28.50
2022-07-31T10:10:04.147Z,28.10
2022-07-31T10:12:36.240Z,28.30
2022-07-31T10:15:14.397Z,28.10
2022-07-31T10:17:52.175Z,28.20
2022-07-31T10:20:24.320Z,27.70
2022-07-31T10:23:01.743Z,28.30
2022-07-31T10:25:32.749Z,28.40
2022-07-31T10:28:04.052Z,28.40
2022-07-31T10:30:33.951Z,28.70
2022-07-31T10:33:27.812Z,28.10
2022-07-31T10:36:04.226Z,27.90
2022-07-31T10:38:43.354Z,28.30
2022-07-31T10:41:20.303Z,28.40
2022-07-31T10:43:54.077Z,28.70
2022-07-31T10:46:30.290Z,28.90
2022-07-31T10:49:00.682Z,28.40
2022-07-31T10:51:48.235Z,28.60
2022-07-31T10:54:20.949Z,29.00
2022-07-31T10:56:50.804Z,29.30
2022-07-31T10:59:30.729Z,28.40
2022-07-31T11:02:01.543Z,28.80
2022-07-31T11:04:34.613Z,28.60
2022-07-31T11:07:04.740Z,28.90
2022-07-31T11:09:50.711Z,28.40
2022-07-31T11:12:21.961Z,29.00
2022-07-31T11:14:51.768Z,29.30
2022-07-31T11:18:22.428Z,29.50
2022-07-31T11:20:21.491Z,29.00
2022-07-31T11:23:04.743Z,29.50
2022-07-31T11:25:39.015Z,29.70
2022-07-31T11:28:18.905Z,29.40
2022-07-31T11:30:53.392Z,29.20
2022-07-31T11:33:41.979Z,29.10
2022-07-31T11:36:14.274Z,29.40
2022-07-31T11:38:46.908Z,30.30
2022-07-31T11:41:22.817Z,30.20
2022-07-31T11:43:54.680Z,29.90
2022-07-31T11:46:28.701Z,29.70
2022-07-31T11:48:59.808Z,29.80
2022-07-31T11:51:31.054Z,29.80
2022-07-31T11:54:01.102Z,28.80
2022-07-31T11:56:34.014Z,29.10
2022-07-31T11:59:03.842Z,28.90
2022-07-31T12:01:35.643Z,29.30
2022-07-31T12:04:08.801Z,29.80
2022-07-31T12:06:39.933Z,29.80
2022-07-31T12:10:00.954Z,29.80
2022-07-31T12:12:03.581Z,29.50
2022-07-31T12:14:36.043Z,29.90
2022-07-31T12:17:07.599Z,30.20
2022-07-31T12:19:39.070Z,30.10
2022-07-31T12:22:17.218Z,29.80
2022-07-31T12:24:47.990Z,29.40
2022-07-31T12:27:21.172Z,30.20
2022-07-31T12:29:51.047Z,30.80
2022-07-31T12:32:28.042Z,30.80
2022-07-31T12:35:06.141Z,30.90
2022-07-31T12:37:45.829Z,30.30
2022-07-31T12:40:27.011Z,30.40
2022-07-31T12:42:59.965Z,30.20
2022-07-31T12:45:34.956Z,29.40
2022-07-31T12:48:05.573Z,29.00
2022-07-31T12:50:37.081Z,29.60
2022-07-31T12:53:09.759Z,29.40
2022-07-31T12:55:39.682Z,29.80
2022-07-31T12:58:13.033Z,29.70
2022-07-31T13:00:42.989Z,30.10
2022-07-31T13:03:12.803Z,29.90
2022-07-31T13:05:42.734Z,29.60
2022-07-31T13:08:13.173Z,29.70
2022-07-31T13:10:43.047Z,30.20
2022-07-31T13:13:16.061Z,30.30
2022-07-31T13:15:45.875Z,30.30
2022-07-31T13:18:15.889Z,30.10
2022-07-31T13:20:45.815Z,30.30
2022-07-31T13:23:15.608Z,30.10
2022-07-31T13:25:48.223Z,30.00
2022-07-31T13:28:20.902Z,29.90
2022-07-31T13:30:54.928Z,30.20
2022-07-31T13:33:25.115Z,30.70
2022-07-31T13:35:54.993Z,30.80
2022-07-31T13:38:24.891Z,30.30
2022-07-31T13:41:07.265Z,29.90
2022-07-31T13:43:39.669Z,30.00
2022-07-31T13:46:30.248Z,30.60
2022-07-31T13:49:01.988Z,30.30
2022-07-31T13:51:32.577Z,30.50
2022-07-31T13:54:02.465Z,29.80
2022-07-31T13:56:40.976Z,29.70
2022-07-31T13:59:17.492Z,29.80
2022-07-31T14:02:04.615Z,30.50
2022-07-31T14:04:41.212Z,30.10
2022-07-31T14:07:13.259Z,30.50
2022-07-31T14:09:51.416Z,31.00
2022-07-31T14:12:25.473Z,31.20
2022-07-31T14:14:57.893Z,31.40
2022-07-31T14:17:27.757Z,31.20
2022-07-31T14:19:57.599Z,30.90
2022-07-31T14:22:27.409Z,30.30
2022-07-31T14:24:57.264Z,30.50
2022-07-31T14:27:27.103Z,30.60
2022-07-31T14:29:59.690Z,30.90
2022-07-31T14:32:34.271Z,31.60
2022-07-31T14:35:08.148Z,31.20
2022-07-31T14:37:39.031Z,30.50
2022-07-31T14:40:10.442Z,31.30
2022-07-31T14:42:41.667Z,31.20
2022-07-31T14:45:14.783Z,31.50
2022-07-31T14:47:46.382Z,31.00
2022-07-31T14:50:19.743Z,31.30
2022-07-31T14:52:50.202Z,31.30
2022-07-31T14:55:20.995Z,30.90
2022-07-31T14:57:51.805Z,30.90
2022-07-31T15:00:24.447Z,30.80
2022-07-31T15:02:54.361Z,31.20
2022-07-31T15:06:41.511Z,30.90
2022-07-31T15:08:17.217Z,31.30
2022-07-31T15:10:47.067Z,31.60
2022-07-31T15:13:16.958Z,31.60
2022-07-31T15:15:54.771Z,31.30
2022-07-31T15:18:25.162Z,30.80
2022-07-31T15:20:56.606Z,31.20
2022-07-31T15:23:26.552Z,31.50
2022-07-31T15:26:05.999Z,31.20
2022-07-31T15:28:35.861Z,31.10
2022-07-31T15:31:08.874Z,30.70
2022-07-31T15:33:39.141Z,31.30
2022-07-31T15:36:15.010Z,31.30
2022-07-31T15:38:45.186Z,31.60
2022-07-31T15:41:19.046Z,30.90
2022-07-31T15:43:49.317Z,31.00
2022-07-31T15:46:21.764Z,31.20
2022-07-31T15:48:52.207Z,31.10
2022-07-31T15:51:23.555Z,31.10
2022-07-31T15:53:53.554Z,31.10
2022-07-31T15:56:26.371Z,31.20
2022-07-31T15:58:58.984Z,31.10
2022-07-31T16:01:31.458Z,31.20
2022-07-31T16:04:01.411Z,30.90
2022-07-31T16:06:32.205Z,30.80
2022-07-31T16:09:02.762Z,30.70
2022-07-31T16:12:05.232Z,30.60
2022-07-31T16:14:28.431Z,30.70
2022-07-31T16:17:05.811Z,30.30
2022-07-31T16:19:35.832Z,30.10
2022-07-31T16:22:05.701Z,30.30
2022-07-31T16:24:40.894Z,30.30
2022-07-31T16:27:10.767Z,30.00
2022-07-31T16:29:59.908Z,30.00
2022-07-31T16:32:33.672Z,29.80
2022-07-31T16:35:03.631Z,29.90
2022-07-31T16:37:52.350Z,29.90
2022-07-31T16:40:28.682Z,29.80
2022-07-31T16:43:49.662Z,29.90
2022-07-31T16:45:55.038Z,29.80
2022-07-31T16:48:27.600Z,29.80
2022-07-31T16:50:58.045Z,29.80
2022-07-31T16:54:11.251Z,29.80
2022-07-31T16:56:19.893Z,29.80
2022-07-31T16:58:54.230Z,29.70
2022-07-31T17:01:57.509Z,29.70
2022-07-31T17:04:17.275Z,29.90
2022-07-31T17:06:47.318Z,29.90
2022-07-31T17:09:18.534Z,29.50
2022-07-31T17:11:50.669Z,29.60
2022-07-31T17:14:22.224Z,29.50
2022-07-31T17:16:53.435Z,29.60
2022-07-31T17:19:36.674Z,29.60
2022-07-31T17:22:17.977Z,29.70
2022-07-31T17:24:51.243Z,29.70
2022-07-31T17:27:23.396Z,29.70
2022-07-31T17:29:53.537Z,29.70
2022-07-31T17:32:23.349Z,29.60
2022-07-31T17:34:56.080Z,29.40
2022-07-31T17:37:25.932Z,29.40
2022-07-31T17:39:57.879Z,29.30
2022-07-31T17:42:29.036Z,29.40
2022-07-31T17:45:01.741Z,29.40
2022-07-31T17:47:32.192Z,29.30
2022-07-31T17:50:04.641Z,29.40
2022-07-31T17:52:34.509Z,29.50
2022-07-31T17:55:04.311Z,29.60
2022-07-31T17:57:34.244Z,29.50
2022-07-31T18:00:04.187Z,29.80
2022-07-31T18:02:34.251Z,29.70
2022-07-31T18:05:07.179Z,29.50
2022-07-31T18:07:37.755Z,29.60
2022-07-31T18:10:09.206Z,29.40
2022-07-31T18:12:56.701Z,29.50
2022-07-31T18:15:34.584Z,29.50
2022-07-31T18:18:05.975Z,29.40
2022-07-31T18:20:38.583Z,29.20
2022-07-31T18:23:10.104Z,29.10
2022-07-31T18:25:40.750Z,29.10
2022-07-31T18:28:10.810Z,29.10
2022-07-31T18:30:41.815Z,29.00
2022-07-31T18:33:13.777Z,29.10
2022-07-31T18:35:46.521Z,28.90
2022-07-31T18:38:16.375Z,28.90
2022-07-31T18:40:46.292Z,28.80
2022-07-31T18:43:16.211Z,28.60
2022-07-31T18:45:46.186Z,28.60
2022-07-31T18:48:16.134Z,28.50
2022-07-31T18:50:58.700Z,28.40
2022-07-31T18:53:34.054Z,28.30
2022-07-31T18:56:03.890Z,28.20
2022-07-31T18:58:33.829Z,28.10
2022-07-31T19:01:03.803Z,28.10
2022-07-31T19:03:33.665Z,28.00
2022-07-31T19:06:06.669Z,27.80
2022-07-31T19:08:36.514Z,27.70
2022-07-31T19:11:06.643Z,27.70
2022-07-31T19:13:36.695Z,27.60
2022-07-31T19:16:06.893Z,27.50
2022-07-31T19:18:37.706Z,27.40
2022-07-31T19:21:22.907Z,27.30
2022-07-31T19:24:01.081Z,27.30
2022-07-31T19:26:31.076Z,27.20
2022-07-31T19:29:00.920Z,27.00
2022-07-31T19:31:30.781Z,27.00
2022-07-31T19:34:00.644Z,26.90
2022-07-31T19:36:33.173Z,26.80
2022-07-31T19:39:03.073Z,26.80
2022-07-31T19:41:34.324Z,26.70
2022-07-31T19:44:04.161Z,26.60
2022-07-31T19:46:34.040Z,26.60
2022-07-31T19:49:04.168Z,26.50
2022-07-31T19:51:36.616Z,26.50
2022-07-31T19:54:06.562Z,26.50
2022-07-31T19:56:36.531Z,26.40
2022-07-31T19:59:06.394Z,26.30
2022-07-31T20:01:38.927Z,26.20
2022-07-31T20:04:13.103Z,26.20
2022-07-31T20:06:45.614Z,26.10
2022-07-31T20:09:15.516Z,26.10
2022-07-31T20:11:47.028Z,26.00
2022-07-31T20:14:16.975Z,26.00
2022-07-31T20:16:46.788Z,25.90
2022-07-31T20:19:16.623Z,25.90
2022-07-31T20:21:48.990Z,25.90
2022-07-31T20:24:18.845Z,25.80
2022-07-31T20:26:48.711Z,25.80
2022-07-31T20:29:18.504Z,25.70
2022-07-31T20:31:48.369Z,25.70
2022-07-31T20:34:18.500Z,25.70
2022-07-31T20:36:51.099Z,25.70
2022-07-31T20:39:25.797Z,25.60
2022-07-31T20:42:05.733Z,25.60
2022-07-31T20:44:35.893Z,25.60
2022-07-31T20:47:05.861Z,25.50
2022-07-31T20:49:36.092Z,25.50
2022-07-31T20:52:09.778Z,25.40
2022-07-31T20:54:39.646Z,25.40
2022-07-31T20:57:09.474Z,25.30
2022-07-31T20:59:39.377Z,25.30
2022-07-31T21:02:09.582Z,25.20
2022-07-31T21:04:39.493Z,25.20
2022-07-31T21:07:11.882Z,25.10
2022-07-31T21:09:42.865Z,25.00
2022-07-31T21:12:12.737Z,25.00
2022-07-31T21:14:42.645Z,25.00
2022-07-31T21:17:12.581Z,24.90
2022-07-31T21:19:42.422Z,24.90
2022-07-31T21:22:14.894Z,24.90
2022-07-31T21:24:45.296Z,24.90
2022-07-31T21:27:18.453Z,24.80
2022-07-31T21:29:56.822Z,24.70
2022-07-31T21:32:27.888Z,24.60
2022-07-31T21:34:58.526Z,24.60
2022-07-31T21:37:39.277Z,24.60
2022-07-31T21:40:12.395Z,24.60
2022-07-31T21:42:43.507Z,24.50
2022-07-31T21:45:15.079Z,24.40
2022-07-31T21:47:52.351Z,24.40
2022-07-31T21:50:29.021Z,24.40
2022-07-31T21:53:04.579Z,24.30
2022-07-31T21:55:36.986Z,24.30
2022-07-31T21:58:07.545Z,24.20
2022-07-31T22:00:42.073Z,24.20
2022-07-31T22:03:12.273Z,24.20
2022-07-31T22:05:57.819Z,24.10
2022-07-31T22:08:38.941Z,24.10
2022-07-31T22:11:09.332Z,24.10
2022-07-31T22:13:39.185Z,24.00
2022-07-31T22:16:09.521Z,24.00
2022-07-31T22:18:39.649Z,23.90
2022-07-31T22:21:11.057Z,23.90
2022-07-31T22:23:44.206Z,23.80
2022-07-31T22:26:14.369Z,23.80
2022-07-31T22:28:47.691Z,23.70
2022-07-31T22:31:18.057Z,23.70
2022-07-31T22:33:48.193Z,23.70
2022-07-31T22:36:18.213Z,23.70
2022-07-31T22:38:52.116Z,23.80
2022-07-31T22:41:22.064Z,23.80
2022-07-31T22:44:12.832Z,23.80
2022-07-31T22:46:42.132Z,23.80
2022-07-31T22:49:12.398Z,23.80
2022-07-31T22:51:46.404Z,23.80
2022-07-31T22:54:21.991Z,23.70
2022-07-31T22:56:51.840Z,23.70
2022-07-31T22:59:21.820Z,23.60
2022-07-31T23:01:55.314Z,23.60
2022-07-31T23:04:28.247Z,23.60
2022-07-31T23:06:58.177Z,23.60
2022-07-31T23:09:32.273Z,23.50
2022-07-31T23:12:02.211Z,23.50
2022-07-31T23:14:38.607Z,23.40
2022-07-31T23:17:08.553Z,23.40
2022-07-31T23:19:38.504Z,23.40
2022-07-31T23:22:08.437Z,23.40
2022-07-31T23:24:40.987Z,23.30
2022-07-31T23:27:10.864Z,23.30
2022-07-31T23:29:41.391Z,23.20
2022-07-31T23:32:11.570Z,23.20
2022-07-31T23:34:42.285Z,23.20
2022-07-31T23:37:12.282Z,23.20
2022-07-31T23:39:44.882Z,23.10
2022-07-31T23:42:27.254Z,23.10
2022-07-31T23:44:57.396Z,23.00
2022-07-31T23:47:45.251Z,23.00
2022-07-31T23:50:16.447Z,22.90
2022-07-31T23:52:46.840Z,23.00
2022-07-31T23:55:19.221Z,22.80
2022-07-31T23:57:49.110Z,22.80
